createdAt,value
2018-04-25T00:00:28.875Z,18.40
2018-04-25T00:01:28.618Z,18.90
2018-04-25T00:02:28.636Z,18.00
2018-04-25T00:03:28.648Z,18.60
2018-04-25T00:04:28.668Z,18.50
2018-04-25T00:05:28.685Z,19.80
2018-04-25T00:06:28.700Z,18.50
2018-04-25T00:07:28.719Z,21.50
2018-04-25T00:08:28.732Z,19.30
2018-04-25T00:09:28.749Z,20.00
2018-04-25T00:10:28.764Z,20.50
2018-04-25T00:11:28.780Z,20.80
2018-04-25T00:12:28.808Z,19.20
2018-04-25T00:13:28.816Z,18.80
2018-04-25T00:14:28.829Z,21.40
2018-04-25T00:15:28.846Z,19.20
2018-04-25T00:16:28.862Z,20.50
2018-04-25T00:17:28.885Z,18.90
2018-04-25T00:18:28.894Z,19.90
2018-04-25T00:19:28.917Z,19.50
2018-04-25T00:20:28.927Z,21.70
2018-04-25T00:21:28.946Z,19.20
2018-04-25T00:22:28.965Z,19.40
2018-04-25T00:23:28.977Z,18.70
2018-04-25T00:24:29.000Z,19.60
2018-04-25T00:25:29.013Z,20.60
2018-04-25T00:26:29.028Z,20.60
2018-04-25T00:27:29.049Z,21.60
2018-04-25T00:28:29.057Z,20.20
2018-04-25T00:29:29.081Z,22.00
2018-04-25T00:30:29.150Z,20.90
2018-04-25T00:31:29.156Z,19.70
2018-04-25T00:33:30.233Z,21.10
2018-04-25T00:34:29.160Z,21.60
2018-04-25T00:35:29.177Z,23.60
2018-04-25T00:36:30.204Z,20.60
2018-04-25T00:37:29.263Z,21.40
2018-04-25T00:38:29.399Z,20.30
2018-04-25T00:39:29.233Z,19.70
2018-04-25T00:40:29.250Z,20.40
2018-04-25T00:41:29.266Z,19.90
2018-04-25T00:42:29.282Z,20.70
2018-04-25T00:43:29.298Z,20.20
2018-04-25T00:44:29.335Z,20.40
2018-04-25T00:45:29.331Z,21.00
2018-04-25T00:46:29.354Z,20.40
2018-04-25T00:47:29.364Z,20.50
2018-04-25T00:48:29.380Z,20.90
2018-04-25T00:49:29.400Z,22.00
2018-04-25T00:50:29.427Z,21.10
2018-04-25T00:51:29.429Z,20.60
2018-04-25T00:52:29.446Z,20.00
2018-04-25T00:53:29.461Z,21.00
2018-04-25T00:54:29.486Z,20.50
2018-04-25T00:55:29.495Z,22.20
2018-04-25T00:56:29.510Z,22.20
2018-04-25T00:57:29.527Z,20.90
2018-04-25T00:58:29.540Z,21.30
2018-04-25T00:59:29.559Z,21.10
2018-04-25T01:00:29.580Z,20.70
2018-04-25T01:01:29.588Z,22.50
2018-04-25T01:02:29.610Z,21.60
2018-04-25T01:03:29.623Z,23.50
2018-04-25T01:04:29.637Z,22.20
2018-04-25T01:05:29.661Z,22.30
2018-04-25T01:06:29.735Z,21.20
2018-04-25T01:08:30.067Z,21.30
2018-04-25T01:09:29.824Z,21.70
2018-04-25T01:10:29.735Z,21.10
2018-04-25T01:11:29.753Z,22.10
2018-04-25T01:12:29.772Z,20.40
2018-04-25T01:13:29.784Z,21.40
2018-04-25T01:14:29.901Z,21.80
2018-04-25T01:15:29.817Z,21.20
2018-04-25T01:16:29.833Z,24.70
2018-04-25T01:17:29.849Z,20.70
2018-04-25T01:18:29.867Z,21.60
2018-04-25T01:19:29.885Z,22.50
2018-04-25T01:20:29.897Z,22.00
2018-04-25T01:21:29.913Z,21.20
2018-04-25T01:22:29.932Z,20.90
2018-04-25T01:23:29.945Z,21.20
2018-04-25T01:24:29.965Z,21.70
2018-04-25T01:25:29.985Z,22.10
2018-04-25T01:26:30.000Z,24.70
2018-04-25T01:27:30.035Z,22.50
2018-04-25T01:28:30.028Z,21.70
2018-04-25T01:29:30.044Z,21.60
2018-04-25T01:30:30.063Z,22.40
2018-04-25T01:33:30.177Z,21.20
2018-04-25T01:34:30.125Z,22.90
2018-04-25T01:35:30.144Z,22.10
2018-04-25T01:36:30.159Z,23.40
2018-04-25T01:37:30.177Z,22.30
2018-04-25T01:38:30.191Z,21.90
2018-04-25T01:39:30.208Z,21.40
2018-04-25T01:40:30.226Z,21.20
2018-04-25T01:41:30.253Z,20.70
2018-04-25T01:42:30.255Z,21.10
2018-04-25T01:43:30.274Z,21.20
2018-04-25T01:44:30.294Z,22.30
2018-04-25T01:45:30.405Z,20.20
2018-04-25T01:46:30.319Z,20.80
2018-04-25T01:47:30.336Z,20.30
2018-04-25T01:48:30.353Z,22.00
2018-04-25T01:49:30.368Z,21.80
2018-04-25T01:50:30.384Z,23.00
2018-04-25T01:51:30.403Z,24.30
2018-04-25T01:52:30.418Z,19.80
2018-04-25T01:53:30.440Z,20.50
2018-04-25T01:54:30.451Z,20.40
2018-04-25T01:55:30.468Z,20.00
2018-04-25T01:56:30.489Z,20.10
2018-04-25T01:57:30.502Z,20.40
2018-04-25T01:58:30.550Z,19.90
2018-04-25T01:59:30.587Z,21.40
2018-04-25T02:00:30.551Z,20.10
2018-04-25T02:01:30.566Z,19.80
2018-04-25T02:02:30.581Z,19.60
2018-04-25T02:03:30.696Z,20.40
2018-04-25T02:04:30.818Z,20.60
2018-04-25T02:05:30.829Z,18.60
2018-04-25T02:07:30.662Z,19.30
2018-04-25T02:08:30.680Z,20.40
2018-04-25T02:09:30.693Z,18.60
2018-04-25T02:10:30.711Z,21.00
2018-04-25T02:11:30.727Z,18.10
2018-04-25T02:12:30.743Z,17.90
2018-04-25T02:13:30.769Z,16.60
2018-04-25T02:14:30.782Z,16.30
2018-04-25T02:15:30.791Z,17.00
2018-04-25T02:16:30.799Z,17.90
2018-04-25T02:17:30.815Z,16.80
2018-04-25T02:18:30.834Z,16.40
2018-04-25T02:19:30.847Z,16.70
2018-04-25T02:20:30.865Z,15.30
2018-04-25T02:21:30.881Z,16.90
2018-04-25T02:22:31.200Z,17.70
2018-04-25T02:23:30.915Z,16.80
2018-04-25T02:24:30.936Z,14.80
2018-04-25T02:25:30.945Z,15.10
2018-04-25T02:26:30.967Z,17.30
2018-04-25T02:27:30.979Z,15.10
2018-04-25T02:28:30.999Z,15.80
2018-04-25T02:29:31.011Z,17.10
2018-04-25T02:30:31.026Z,16.60
2018-04-25T02:31:31.043Z,15.30
2018-04-25T02:32:31.058Z,13.00
2018-04-25T02:33:31.077Z,18.80
2018-04-25T02:34:31.093Z,12.80
2018-04-25T02:35:31.110Z,17.40
2018-04-25T02:36:31.124Z,13.90
2018-04-25T02:37:31.193Z,11.70
2018-04-25T02:38:31.305Z,14.40
2018-04-25T02:39:31.375Z,16.10
2018-04-25T02:40:31.198Z,14.10
2018-04-25T02:41:31.206Z,13.40
2018-04-25T02:42:31.221Z,13.40
2018-04-25T02:43:31.236Z,13.10
2018-04-25T02:44:31.253Z,12.60
2018-04-25T02:45:31.274Z,13.10
2018-04-25T02:46:31.292Z,13.60
2018-04-25T02:47:31.304Z,14.20
2018-04-25T02:48:31.318Z,13.00
2018-04-25T02:49:31.336Z,15.10
2018-04-25T02:50:31.350Z,11.90
2018-04-25T02:51:31.367Z,13.60
2018-04-25T02:52:31.385Z,16.00
2018-04-25T02:53:31.399Z,13.80
2018-04-25T02:54:31.421Z,11.40
2018-04-25T02:55:31.431Z,13.30
2018-04-25T02:56:31.447Z,14.00
2018-04-25T02:57:31.462Z,13.20
2018-04-25T02:58:31.478Z,12.90
2018-04-25T02:59:31.495Z,13.00
2018-04-25T03:00:31.511Z,13.60
2018-04-25T03:01:31.544Z,12.20
2018-04-25T03:02:31.543Z,13.90
2018-04-25T03:03:31.558Z,14.10
2018-04-25T03:04:31.592Z,12.90
2018-04-25T03:05:31.597Z,12.30
2018-04-25T03:06:31.606Z,12.10
2018-04-25T03:07:31.622Z,11.90
2018-04-25T03:08:31.645Z,15.60
2018-04-25T03:09:31.659Z,14.30
2018-04-25T03:10:31.675Z,13.70
2018-04-25T03:11:31.700Z,14.40
2018-04-25T03:12:31.710Z,13.20
2018-04-25T03:14:32.347Z,11.30
2018-04-25T03:15:31.765Z,11.50
2018-04-25T03:16:31.768Z,12.00
2018-04-25T03:17:31.789Z,11.30
2018-04-25T03:18:31.800Z,11.50
2018-04-25T03:19:31.815Z,11.00
2018-04-25T03:20:31.831Z,13.60
2018-04-25T03:21:31.848Z,14.50
2018-04-25T03:22:31.937Z,11.50
2018-04-25T03:23:31.881Z,10.00
2018-04-25T03:24:31.894Z,11.70
2018-04-25T03:25:31.920Z,14.60
2018-04-25T03:26:31.929Z,13.40
2018-04-25T03:27:31.943Z,13.40
2018-04-25T03:28:31.962Z,10.60
2018-04-25T03:29:31.979Z,12.10
2018-04-25T03:30:31.989Z,12.20
2018-04-25T03:31:32.013Z,12.10
2018-04-25T03:32:32.029Z,11.40
2018-04-25T03:33:32.039Z,10.80
2018-04-25T03:34:32.059Z,11.00
2018-04-25T03:35:32.073Z,10.70
2018-04-25T03:36:32.087Z,12.90
2018-04-25T03:37:32.121Z,11.60
2018-04-25T03:38:32.123Z,10.80
2018-04-25T03:39:32.135Z,11.30
2018-04-25T03:40:32.155Z,10.90
2018-04-25T03:41:32.168Z,12.70
2018-04-25T03:42:32.196Z,11.60
2018-04-25T03:43:32.249Z,11.20
2018-04-25T03:44:32.351Z,10.80
2018-04-25T03:45:32.274Z,11.50
2018-04-25T03:46:32.247Z,12.20
2018-04-25T03:47:32.262Z,10.80
2018-04-25T03:48:32.279Z,12.10
2018-04-25T03:49:32.300Z,12.00
2018-04-25T03:50:32.316Z,12.70
2018-04-25T03:51:32.325Z,15.00
2018-04-25T03:52:32.344Z,11.70
2018-04-25T03:53:32.360Z,11.60
2018-04-25T03:54:32.383Z,11.30
2018-04-25T03:55:32.391Z,13.20
2018-04-25T03:56:32.407Z,11.60
2018-04-25T03:57:32.430Z,11.30
2018-04-25T03:58:32.441Z,11.50
2018-04-25T03:59:32.462Z,12.50
2018-04-25T04:00:32.481Z,12.00
2018-04-25T04:01:32.486Z,11.40
2018-04-25T04:02:32.500Z,12.80
2018-04-25T04:03:32.519Z,10.90
2018-04-25T04:04:32.539Z,11.20
2018-04-25T04:05:32.569Z,11.10
2018-04-25T04:06:32.566Z,11.90
2018-04-25T04:07:32.587Z,11.80
2018-04-25T04:08:32.597Z,12.00
2018-04-25T04:09:32.618Z,10.80
2018-04-25T04:10:32.630Z,11.20
2018-04-25T04:11:32.667Z,10.90
2018-04-25T04:12:32.668Z,10.30
2018-04-25T04:13:32.679Z,11.00
2018-04-25T04:14:32.695Z,10.20
2018-04-25T04:15:32.715Z,10.50
2018-04-25T04:16:32.726Z,11.40
2018-04-25T04:17:32.773Z,10.70
2018-04-25T04:19:32.873Z,10.80
2018-04-25T04:20:33.152Z,11.30
2018-04-25T04:21:32.806Z,11.80
2018-04-25T04:22:32.823Z,11.30
2018-04-25T04:23:32.850Z,11.30
2018-04-25T04:24:32.856Z,11.70
2018-04-25T04:25:32.880Z,11.10
2018-04-25T04:26:32.885Z,11.70
2018-04-25T04:27:32.901Z,11.30
2018-04-25T04:29:32.937Z,11.90
2018-04-25T04:30:33.013Z,11.40
2018-04-25T04:31:32.967Z,11.60
2018-04-25T04:32:32.980Z,11.70
2018-04-25T04:33:33.001Z,10.80
2018-04-25T04:34:33.020Z,10.10
2018-04-25T04:35:33.067Z,9.40
2018-04-25T04:36:33.064Z,9.50
2018-04-25T04:37:33.060Z,9.30
2018-04-25T04:38:33.075Z,10.30
2018-04-25T04:39:33.097Z,9.70
2018-04-25T04:40:33.107Z,9.00
2018-04-25T04:41:33.128Z,7.60
2018-04-25T04:42:33.139Z,8.40
2018-04-25T04:44:33.174Z,8.20
2018-04-25T04:45:33.186Z,7.20
2018-04-25T04:46:33.205Z,7.70
2018-04-25T04:47:33.222Z,6.00
2018-04-25T04:48:33.239Z,7.40
2018-04-25T04:49:33.319Z,6.80
2018-04-25T04:50:33.269Z,7.90
2018-04-25T04:51:33.285Z,6.70
2018-04-25T04:52:33.305Z,6.10
2018-04-25T04:53:33.328Z,9.20
2018-04-25T04:55:33.553Z,7.30
2018-04-25T04:56:34.046Z,6.20
2018-04-25T04:57:34.186Z,6.90
2018-04-25T04:58:33.400Z,7.30
2018-04-25T04:59:33.417Z,7.20
2018-04-25T05:00:33.426Z,7.50
2018-04-25T05:02:33.670Z,6.90
2018-04-25T05:03:33.475Z,7.90
2018-04-25T05:04:33.497Z,8.30
2018-04-25T05:05:33.509Z,7.80
2018-04-25T05:06:33.522Z,8.70
2018-04-25T05:07:33.549Z,7.80
2018-04-25T05:08:33.609Z,9.10
2018-04-25T05:09:33.575Z,9.90
2018-04-25T05:10:34.229Z,10.80
2018-04-25T05:11:33.609Z,7.10
2018-04-25T05:12:33.619Z,10.20
2018-04-25T05:13:33.635Z,7.10
2018-04-25T05:14:33.650Z,6.70
2018-04-25T05:15:33.665Z,7.50
2018-04-25T05:16:33.685Z,6.80
2018-04-25T05:17:33.706Z,7.20
2018-04-25T05:18:33.715Z,6.80
2018-04-25T05:19:33.777Z,6.00
2018-04-25T05:20:33.936Z,8.00
2018-04-25T05:21:33.767Z,6.60
2018-04-25T05:22:33.783Z,6.80
2018-04-25T05:23:33.797Z,5.10
2018-04-25T05:24:33.864Z,7.00
2018-04-25T05:25:33.830Z,4.70
2018-04-25T05:26:33.841Z,6.10
2018-04-25T05:27:33.868Z,5.50
2018-04-25T05:28:33.878Z,6.90
2018-04-25T05:29:33.890Z,8.20
2018-04-25T05:30:33.906Z,6.10
2018-04-25T05:31:33.933Z,6.10
2018-04-25T05:32:33.939Z,5.60
2018-04-25T05:33:33.987Z,5.60
2018-04-25T05:34:33.974Z,5.90
2018-04-25T05:35:33.987Z,5.70
2018-04-25T05:36:33.999Z,5.00
2018-04-25T05:37:34.017Z,5.10
2018-04-25T05:38:34.036Z,6.80
2018-04-25T05:39:34.060Z,6.10
2018-04-25T05:40:34.908Z,5.50
2018-04-25T05:41:34.082Z,6.20
2018-04-25T05:42:34.096Z,8.00
2018-04-25T05:43:34.268Z,5.90
2018-04-25T05:44:34.156Z,10.00
2018-04-25T05:45:34.143Z,7.00
2018-04-25T05:46:34.162Z,7.70
2018-04-25T05:47:34.207Z,8.80
2018-04-25T05:48:34.250Z,8.00
2018-04-25T05:49:34.210Z,8.50
2018-04-25T05:50:34.222Z,8.00
2018-04-25T05:51:34.336Z,8.40
2018-04-25T05:52:34.256Z,8.10
2018-04-25T05:53:34.294Z,6.20
2018-04-25T05:54:34.284Z,6.20
2018-04-25T05:55:34.302Z,5.60
2018-04-25T05:56:34.312Z,5.70
2018-04-25T05:57:34.345Z,6.10
2018-04-25T05:58:34.343Z,5.60
2018-04-25T05:59:34.360Z,5.50
2018-04-25T06:00:34.389Z,6.20
2018-04-25T06:01:34.389Z,4.80
2018-04-25T06:02:34.411Z,5.00
2018-04-25T06:03:34.419Z,5.10
2018-04-25T06:04:34.437Z,4.80
2018-04-25T06:05:34.451Z,3.80
2018-04-25T06:06:34.469Z,4.10
2018-04-25T06:07:34.487Z,3.80
2018-04-25T06:08:34.515Z,4.30
2018-04-25T06:09:34.515Z,3.70
2018-04-25T06:10:34.885Z,4.10
2018-04-25T06:11:34.541Z,3.40
2018-04-25T06:12:34.663Z,4.40
2018-04-25T06:13:34.574Z,3.20
2018-04-25T06:14:34.593Z,3.60
2018-04-25T06:15:34.603Z,3.80
2018-04-25T06:16:34.673Z,4.00
2018-04-25T06:17:34.689Z,4.30
2018-04-25T06:18:34.695Z,4.60
2018-04-25T06:19:34.667Z,3.80
2018-04-25T06:20:34.679Z,5.20
2018-04-25T06:21:34.693Z,3.40
2018-04-25T06:22:34.708Z,3.70
2018-04-25T06:23:34.730Z,3.40
2018-04-25T06:24:34.746Z,3.70
2018-04-25T06:25:34.754Z,3.90
2018-04-25T06:26:34.780Z,4.30
2018-04-25T06:27:34.852Z,3.90
2018-04-25T06:28:34.806Z,4.40
2018-04-25T06:29:34.819Z,5.10
2018-04-25T06:30:34.832Z,5.20
2018-04-25T06:31:34.859Z,6.20
2018-04-25T06:32:34.862Z,4.60
2018-04-25T06:33:34.994Z,4.70
2018-04-25T06:34:34.903Z,4.20
2018-04-25T06:35:34.907Z,4.70
2018-04-25T06:36:34.932Z,4.40
2018-04-25T06:37:34.938Z,5.60
2018-04-25T06:38:34.959Z,5.00
2018-04-25T06:39:34.982Z,4.60
2018-04-25T06:40:34.984Z,4.50
2018-04-25T06:42:35.176Z,6.30
2018-04-25T06:43:35.037Z,4.50
2018-04-25T06:44:35.045Z,4.50
2018-04-25T06:45:35.070Z,4.70
2018-04-25T06:46:35.086Z,5.30
2018-04-25T06:47:35.106Z,5.00
2018-04-25T06:48:35.173Z,5.30
2018-04-25T06:49:35.426Z,4.80
2018-04-25T06:50:35.228Z,5.90
2018-04-25T06:51:35.161Z,5.40
2018-04-25T06:52:35.171Z,4.70
2018-04-25T06:53:35.198Z,5.10
2018-04-25T06:54:35.202Z,4.90
2018-04-25T06:55:35.222Z,4.70
2018-04-25T06:56:35.232Z,5.60
2018-04-25T06:57:35.255Z,4.90
2018-04-25T06:58:35.271Z,5.70
2018-04-25T06:59:35.279Z,5.50
2018-04-25T07:00:35.297Z,4.80
2018-04-25T07:01:35.312Z,4.20
2018-04-25T07:02:35.326Z,5.20
2018-04-25T07:03:35.419Z,4.80
2018-04-25T07:04:35.378Z,4.40
2018-04-25T07:05:35.373Z,4.80
2018-04-25T07:06:35.390Z,4.20
2018-04-25T07:07:35.408Z,5.40
2018-04-25T07:08:35.419Z,5.00
2018-04-25T07:09:35.645Z,3.90
2018-04-25T07:12:37.231Z,4.60
2018-04-25T07:13:35.687Z,4.80
2018-04-25T07:14:35.513Z,5.40
2018-04-25T07:15:35.529Z,4.20
2018-04-25T07:16:35.546Z,4.10
2018-04-25T07:17:35.563Z,4.80
2018-04-25T07:18:35.580Z,4.40
2018-04-25T07:19:35.611Z,4.70
2018-04-25T07:20:35.616Z,3.70
2018-04-25T07:21:35.657Z,5.00
2018-04-25T07:22:35.643Z,4.80
2018-04-25T07:23:35.675Z,4.50
2018-04-25T07:24:35.677Z,4.60
2018-04-25T07:25:35.688Z,4.90
2018-04-25T07:26:35.709Z,5.80
2018-04-25T07:27:38.953Z,4.20
2018-04-25T07:29:37.820Z,5.20
2018-04-25T07:30:38.388Z,3.80
2018-04-25T07:31:38.003Z,4.90
2018-04-25T07:32:37.037Z,4.90
2018-04-25T07:33:37.873Z,5.70
2018-04-25T07:35:36.784Z,4.40
2018-04-25T07:36:39.399Z,5.30
2018-04-25T07:37:36.978Z,5.70
2018-04-25T07:38:39.760Z,6.30
2018-04-25T07:40:39.488Z,5.00
2018-04-25T07:41:37.822Z,5.90
2018-04-25T07:42:37.509Z,7.80
2018-04-25T07:43:37.874Z,5.60
2018-04-25T07:44:38.445Z,6.30
2018-04-25T07:45:38.056Z,7.00
2018-04-25T07:46:37.383Z,7.00
2018-04-25T07:47:38.470Z,7.20
2018-04-25T07:48:39.508Z,7.30
2018-04-25T07:49:37.577Z,8.80
2018-04-25T07:50:37.817Z,7.00
2018-04-25T07:51:38.116Z,7.80
2018-04-25T07:52:38.836Z,7.80
2018-04-25T07:53:37.734Z,8.00
2018-04-25T07:54:38.166Z,7.70
2018-04-25T07:55:38.206Z,8.20
2018-04-25T07:56:38.177Z,6.30
2018-04-25T07:57:38.657Z,8.50
2018-04-25T07:58:37.260Z,7.00
2018-04-25T07:59:38.497Z,6.60
2018-04-25T08:00:38.813Z,8.00
2018-04-25T08:01:39.519Z,8.70
2018-04-25T08:02:37.674Z,8.50
2018-04-25T08:03:37.989Z,7.20
2018-04-25T08:04:38.203Z,8.20
2018-04-25T08:05:37.283Z,8.70
2018-04-25T08:06:39.257Z,8.50
2018-04-25T08:07:37.592Z,7.80
2018-04-25T08:08:38.025Z,7.50
2018-04-25T08:10:38.683Z,7.90
2018-04-25T08:11:38.108Z,9.50
2018-04-25T08:12:40.207Z,8.80
2018-04-25T08:13:38.627Z,7.50
2018-04-25T08:14:38.812Z,8.60
2018-04-25T08:15:38.710Z,9.20
2018-04-25T08:16:38.566Z,9.10
2018-04-25T08:17:37.749Z,8.50
2018-04-25T08:18:37.074Z,8.70
2018-04-25T08:19:36.842Z,8.00
2018-04-25T08:20:38.151Z,8.70
2018-04-25T08:21:38.333Z,6.80
2018-04-25T08:22:39.969Z,7.40
2018-04-25T08:23:39.078Z,8.40
2018-04-25T08:24:38.641Z,9.70
2018-04-25T08:25:38.307Z,6.40
2018-04-25T08:26:37.763Z,6.00
2018-04-25T08:28:36.839Z,7.80
2018-04-25T08:29:39.384Z,6.60
2018-04-25T08:30:38.279Z,7.40
2018-04-25T08:31:38.973Z,7.30
2018-04-25T08:32:39.804Z,6.20
2018-04-25T08:33:38.278Z,8.60
2018-04-25T08:34:39.527Z,5.80
2018-04-25T08:35:39.818Z,5.90
2018-04-25T08:36:39.269Z,7.60
2018-04-25T08:37:39.321Z,6.10
2018-04-25T08:38:37.896Z,7.60
2018-04-25T08:39:38.006Z,6.20
2018-04-25T08:40:38.325Z,5.70
2018-04-25T08:41:38.240Z,8.30
2018-04-25T08:42:39.292Z,5.80
2018-04-25T08:43:39.537Z,7.40
2018-04-25T08:44:39.042Z,7.90
2018-04-25T08:45:38.082Z,9.50
2018-04-25T08:46:38.285Z,6.90
2018-04-25T08:47:38.539Z,6.30
2018-04-25T08:48:38.599Z,8.70
2018-04-25T08:49:39.420Z,4.90
2018-04-25T08:50:38.180Z,8.10
2018-04-25T08:51:39.074Z,5.90
2018-04-25T08:52:39.341Z,6.30
2018-04-25T08:53:39.456Z,7.00
2018-04-25T08:54:39.174Z,4.20
2018-04-25T08:55:39.736Z,6.30
2018-04-25T08:56:38.908Z,3.90
2018-04-25T08:57:38.696Z,4.50
2018-04-25T08:58:38.477Z,3.60
2018-04-25T08:59:39.447Z,5.00
2018-04-25T09:00:38.681Z,4.20
2018-04-25T09:01:40.101Z,4.30
2018-04-25T09:02:40.295Z,4.90
2018-04-25T09:03:41.063Z,5.00
2018-04-25T09:04:39.844Z,3.50
2018-04-25T09:05:40.739Z,3.60
2018-04-25T09:06:39.141Z,4.10
2018-04-25T09:07:38.966Z,3.10
2018-04-25T09:08:39.323Z,4.00
2018-04-25T09:09:38.047Z,3.70
2018-04-25T09:10:38.579Z,2.60
2018-04-25T09:11:37.362Z,2.70
2018-04-25T09:12:37.495Z,2.60
2018-04-25T09:13:37.396Z,3.40
2018-04-25T09:14:37.406Z,3.30
2018-04-25T09:15:37.437Z,2.30
2018-04-25T09:16:37.438Z,3.30
2018-04-25T09:17:37.455Z,2.70
2018-04-25T09:18:37.482Z,2.80
2018-04-25T09:19:37.495Z,4.10
2018-04-25T09:20:37.507Z,5.00
2018-04-25T09:21:37.526Z,3.40
2018-04-25T09:22:37.539Z,3.00
2018-04-25T09:23:37.550Z,3.30
2018-04-25T09:24:37.626Z,3.10
2018-04-25T09:25:37.585Z,2.60
2018-04-25T09:26:37.598Z,3.50
2018-04-25T09:27:37.634Z,4.50
2018-04-25T09:28:37.637Z,5.10
2018-04-25T09:29:37.649Z,3.50
2018-04-25T09:30:37.665Z,2.20
2018-04-25T09:31:37.678Z,4.20
2018-04-25T09:32:37.700Z,2.90
2018-04-25T09:33:37.713Z,2.90
2018-04-25T09:34:37.739Z,2.80
2018-04-25T09:35:37.749Z,4.20
2018-04-25T09:36:37.775Z,2.90
2018-04-25T09:37:37.778Z,2.80
2018-04-25T09:38:37.808Z,3.10
2018-04-25T09:39:37.887Z,2.70
2018-04-25T09:40:37.832Z,4.70
2018-04-25T09:41:37.842Z,3.90
2018-04-25T09:42:37.860Z,3.10
2018-04-25T09:43:37.875Z,2.80
2018-04-25T09:44:37.902Z,3.20
2018-04-25T09:46:38.022Z,3.40
2018-04-25T09:47:37.956Z,3.00
2018-04-25T09:48:37.959Z,5.60
2018-04-25T09:49:38.277Z,5.30
2018-04-25T09:50:38.033Z,3.60
2018-04-25T09:51:38.005Z,2.10
2018-04-25T09:52:38.035Z,3.30
2018-04-25T09:53:38.063Z,4.50
2018-04-25T09:54:38.744Z,3.40
2018-04-25T09:55:38.075Z,2.90
2018-04-25T09:56:38.655Z,3.00
2018-04-25T09:57:38.158Z,3.20
2018-04-25T09:58:38.139Z,3.10
2018-04-25T09:59:38.142Z,3.90
2018-04-25T10:00:38.796Z,4.90
2018-04-25T10:01:38.178Z,4.00
2018-04-25T10:02:38.189Z,2.10
2018-04-25T10:03:38.204Z,2.70
2018-04-25T10:04:38.260Z,3.20
2018-04-25T10:05:38.238Z,2.40
2018-04-25T10:06:38.271Z,3.60
2018-04-25T10:07:38.271Z,3.20
2018-04-25T10:08:38.292Z,2.90
2018-04-25T10:09:38.301Z,2.90
2018-04-25T10:10:38.320Z,3.40
2018-04-25T10:11:38.332Z,3.30
2018-04-25T10:12:38.351Z,2.20
2018-04-25T10:13:38.396Z,3.40
2018-04-25T10:14:38.380Z,3.30
2018-04-25T10:15:38.427Z,1.70
2018-04-25T10:16:38.424Z,3.20
2018-04-25T10:17:38.436Z,3.20
2018-04-25T10:18:38.456Z,2.50
2018-04-25T10:19:38.468Z,3.80
2018-04-25T10:20:38.493Z,3.60
2018-04-25T10:21:38.494Z,3.70
2018-04-25T10:22:38.514Z,3.70
2018-04-25T10:23:38.527Z,2.70
2018-04-25T10:24:38.556Z,3.90
2018-04-25T10:25:38.650Z,3.40
2018-04-25T10:26:38.585Z,2.90
2018-04-25T10:27:38.592Z,2.30
2018-04-25T10:28:38.616Z,3.00
2018-04-25T10:29:38.667Z,2.40
2018-04-25T10:30:38.639Z,3.80
2018-04-25T10:31:38.860Z,2.50
2018-04-25T10:32:41.260Z,3.00
2018-04-25T10:33:38.693Z,4.10
2018-04-25T10:34:38.762Z,2.00
2018-04-25T10:35:38.720Z,4.10
2018-04-25T10:36:38.740Z,4.50
2018-04-25T10:37:38.760Z,2.40
2018-04-25T10:38:38.784Z,2.00
2018-04-25T10:39:38.784Z,2.20
2018-04-25T10:41:40.300Z,4.00
2018-04-25T10:42:38.838Z,2.60
2018-04-25T10:43:38.851Z,4.20
2018-04-25T10:44:38.869Z,2.70
2018-04-25T10:45:40.162Z,2.10
2018-04-25T10:46:38.900Z,2.90
2018-04-25T10:47:38.917Z,3.70
2018-04-25T10:48:38.934Z,3.50
2018-04-25T10:49:40.469Z,3.90
2018-04-25T10:50:39.030Z,4.80
2018-04-25T10:51:38.983Z,3.00
2018-04-25T10:52:38.997Z,4.50
2018-04-25T10:53:39.016Z,3.20
2018-04-25T10:54:39.053Z,4.10
2018-04-25T10:55:39.348Z,3.90
2018-04-25T10:56:39.060Z,3.70
2018-04-25T10:57:39.080Z,4.80
2018-04-25T10:58:39.205Z,3.10
2018-04-25T10:59:39.496Z,3.50
2018-04-25T11:00:39.190Z,4.00
2018-04-25T11:01:39.155Z,4.50
2018-04-25T11:02:39.173Z,4.10
2018-04-25T11:03:39.289Z,3.20
2018-04-25T11:04:39.212Z,4.00
2018-04-25T11:05:39.224Z,3.60
2018-04-25T11:06:39.304Z,3.10
2018-04-25T11:07:39.239Z,3.10
2018-04-25T11:08:39.769Z,4.90
2018-04-25T11:09:39.277Z,6.30
2018-04-25T11:10:39.957Z,4.50
2018-04-25T11:11:39.306Z,3.10
2018-04-25T11:12:39.321Z,2.90
2018-04-25T11:13:39.345Z,3.10
2018-04-25T11:14:39.354Z,2.70
2018-04-25T11:15:39.379Z,4.60
2018-04-25T11:16:39.391Z,2.90
2018-04-25T11:17:39.409Z,4.00
2018-04-25T11:18:39.422Z,3.30
2018-04-25T11:19:39.438Z,4.60
2018-04-25T11:20:39.458Z,3.20
2018-04-25T11:21:39.479Z,4.50
2018-04-25T11:22:39.490Z,3.30
2018-04-25T11:23:39.504Z,3.20
2018-04-25T11:24:39.521Z,4.00
2018-04-25T11:25:39.548Z,3.00
2018-04-25T11:26:39.632Z,5.20
2018-04-25T11:27:39.572Z,3.90
2018-04-25T11:28:39.590Z,4.40
2018-04-25T11:29:39.604Z,4.10
2018-04-25T11:30:39.789Z,4.50
2018-04-25T11:31:39.676Z,5.70
2018-04-25T11:32:39.651Z,3.80
2018-04-25T11:33:39.667Z,4.90
2018-04-25T11:34:41.083Z,4.00
2018-04-25T11:35:39.704Z,3.60
2018-04-25T11:36:40.079Z,5.10
2018-04-25T11:37:39.785Z,4.90
2018-04-25T11:38:39.751Z,4.00
2018-04-25T11:39:39.770Z,3.30
2018-04-25T11:40:39.884Z,3.80
2018-04-25T11:41:39.798Z,3.70
2018-04-25T11:42:39.815Z,5.30
2018-04-25T11:43:40.009Z,3.00
2018-04-25T11:45:39.996Z,4.40
2018-04-25T11:47:39.891Z,3.20
2018-04-25T11:48:39.957Z,4.20
2018-04-25T11:49:39.940Z,4.80
2018-04-25T11:50:40.197Z,3.20
2018-04-25T11:51:40.110Z,3.30
2018-04-25T11:52:39.975Z,3.70
2018-04-25T11:53:40.143Z,3.50
2018-04-25T11:54:40.016Z,3.30
2018-04-25T11:55:40.033Z,3.70
2018-04-25T11:56:41.054Z,4.60
2018-04-25T11:57:40.071Z,5.10
2018-04-25T11:58:40.070Z,4.00
2018-04-25T11:59:40.157Z,3.50
2018-04-25T12:00:40.105Z,4.30
2018-04-25T12:01:40.121Z,4.00
2018-04-25T12:03:40.150Z,4.30
2018-04-25T12:04:40.377Z,4.10
2018-04-25T12:05:40.197Z,5.20
2018-04-25T12:06:40.247Z,4.20
2018-04-25T12:07:40.283Z,4.10
2018-04-25T12:08:41.176Z,4.40
2018-04-25T12:09:41.399Z,4.00
2018-04-25T12:10:40.341Z,3.60
2018-04-25T12:11:40.291Z,3.10
2018-04-25T12:12:40.300Z,5.90
2018-04-25T12:13:40.312Z,7.50
2018-04-25T12:14:40.428Z,4.20
2018-04-25T12:15:40.511Z,3.20
2018-04-25T12:17:40.683Z,4.00
2018-04-25T12:18:41.011Z,3.30
2018-04-25T12:19:40.409Z,5.50
2018-04-25T12:21:40.456Z,4.10
2018-04-25T12:22:40.455Z,4.60
2018-04-25T12:23:40.471Z,5.10
2018-04-25T12:24:40.688Z,3.80
2018-04-25T12:26:40.658Z,5.60
2018-04-25T12:27:40.562Z,3.80
2018-04-25T12:28:40.554Z,5.20
2018-04-25T12:29:40.585Z,3.80
2018-04-25T12:30:40.588Z,6.60
2018-04-25T12:31:40.605Z,4.40
2018-04-25T12:32:40.626Z,3.20
2018-04-25T12:33:40.700Z,4.10
2018-04-25T12:34:40.647Z,4.90
2018-04-25T12:35:40.780Z,4.30
2018-04-25T12:36:40.690Z,4.20
2018-04-25T12:37:40.696Z,5.40
2018-04-25T12:38:40.718Z,3.40
2018-04-25T12:39:40.732Z,4.40
2018-04-25T12:40:42.224Z,4.30
2018-04-25T12:41:41.028Z,4.90
2018-04-25T12:43:40.908Z,3.80
2018-04-25T12:44:40.979Z,4.70
2018-04-25T12:46:40.847Z,5.00
2018-04-25T12:47:40.857Z,4.60
2018-04-25T12:48:40.875Z,4.50
2018-04-25T12:49:40.896Z,6.00
2018-04-25T12:50:40.912Z,5.00
2018-04-25T12:51:40.924Z,5.10
2018-04-25T12:52:41.580Z,5.10
2018-04-25T12:53:40.956Z,5.40
2018-04-25T12:54:40.992Z,4.60
2018-04-25T12:55:41.002Z,5.00
2018-04-25T12:57:42.953Z,4.90
2018-04-25T12:58:41.594Z,6.70
2018-04-25T13:00:41.120Z,5.70
2018-04-25T13:01:41.594Z,5.40
2018-04-25T13:02:41.102Z,4.70
2018-04-25T13:03:41.119Z,4.70
2018-04-25T13:04:41.150Z,6.20
2018-04-25T13:05:43.740Z,4.80
2018-04-25T13:06:41.168Z,4.90
2018-04-25T13:07:41.185Z,6.00
2018-04-25T13:08:41.206Z,5.80
2018-04-25T13:09:41.593Z,5.60
2018-04-25T13:10:41.436Z,6.40
2018-04-25T13:11:41.252Z,6.20
2018-04-25T13:12:41.375Z,6.40
2018-04-25T13:13:41.665Z,5.80
2018-04-25T13:14:41.302Z,4.60
2018-04-25T13:15:41.347Z,4.60
2018-04-25T13:16:41.347Z,4.90
2018-04-25T13:17:41.354Z,5.10
2018-04-25T13:18:41.384Z,6.70
2018-04-25T13:19:41.432Z,6.50
2018-04-25T13:20:41.499Z,4.80
2018-04-25T13:21:41.434Z,4.50
2018-04-25T13:22:41.443Z,5.00
2018-04-25T13:23:41.459Z,5.60
2018-04-25T13:24:41.475Z,5.40
2018-04-25T13:25:41.494Z,4.80
2018-04-25T13:26:41.515Z,6.90
2018-04-25T13:27:41.535Z,7.10
2018-04-25T13:28:41.556Z,4.90
2018-04-25T13:29:41.663Z,5.90
2018-04-25T13:30:42.435Z,6.80
2018-04-25T13:31:41.600Z,5.10
2018-04-25T13:32:41.634Z,5.70
2018-04-25T13:33:41.639Z,5.60
2018-04-25T13:35:41.674Z,7.20
2018-04-25T13:36:41.694Z,6.90
2018-04-25T13:37:41.789Z,5.20
2018-04-25T13:38:41.744Z,4.70
2018-04-25T13:39:41.807Z,6.80
2018-04-25T13:40:42.089Z,5.30
2018-04-25T13:41:41.795Z,4.90